Time;durP1;ratioP1;P1;durP2;ratioP2;P2;SDS_P1;SDS_P2;PMS_P1;PMS_P2;Temp;Humidity;BMP_temperature;BMP_pressure;BME280_temperature;BME280_humidity;BME280_pressure;Samples;Min_cycle;Max_cycle;Signal;HPM_P1;HPM_P2
2022/04/22 00:02:14;;;;;;;6.85;4.32;;;;;;;9.10;48.48;94498.94;10447357;27;96945;-63
2022/04/22 00:07:17;;;;;;;10.20;5.30;;;;;;;8.78;49.53;94505.31;10448185;27;97156;-64
2022/04/22 00:12:20;;;;;;;7.75;5.15;;;;;;;8.66;50.01;94505.78;10430263;27;97381;-64
2022/04/22 00:17:24;;;;;;;5.78;3.88;;;;;;;8.54;50.17;94494.19;10433093;27;98807;-63
2022/04/22 00:22:27;;;;;;;4.95;4.10;;;;;;;8.52;50.41;94496.16;10431379;27;96923;-64
2022/04/22 00:27:29;;;;;;;5.90;3.53;;;;;;;8.48;49.69;94492.28;10438671;27;102855;-63
2022/04/22 00:32:34;;;;;;;7.25;3.50;;;;;;;8.43;50.30;94492.84;10439284;27;97372;-63
2022/04/22 00:37:38;;;;;;;6.45;3.80;;;;;;;8.31;50.92;94489.03;10454640;27;96873;-63
2022/04/22 00:42:41;;;;;;;6.47;3.83;;;;;;;8.03;51.76;94492.22;10435468;27;96695;-63
2022/04/22 00:47:45;;;;;;;4.57;3.72;;;;;;;7.91;53.20;94478.81;10437840;27;96747;-64
2022/04/22 00:52:49;;;;;;;7.80;4.05;;;;;;;7.79;53.14;94483.59;10428130;27;96982;-64
2022/04/22 00:57:54;;;;;;;5.50;3.92;;;;;;;7.88;53.07;94484.34;10418091;27;96938;-63
2022/04/22 01:02:58;;;;;;;4.60;3.83;;;;;;;7.88;53.10;94473.94;10435178;27;100276;-64
2022/04/22 01:13:22;;;;;;;6.75;3.95;;;;;;;7.30;54.92;94475.28;10418963;27;97005;-63
2022/04/22 01:18:26;;;;;;;5.95;3.75;;;;;;;7.14;55.53;94466.59;10422501;27;97844;-63
2022/04/22 01:23:34;;;;;;;7.45;4.30;;;;;;;7.07;55.94;94465.66;10433721;27;97821;-63
2022/04/22 01:28:37;;;;;;;6.65;3.60;;;;;;;7.19;54.82;94459.13;10425897;27;97192;-63
2022/04/22 01:33:40;;;;;;;4.50;3.50;;;;;;;7.31;54.23;94466.53;10427846;27;98054;-63
2022/04/22 01:38:44;;;;;;;5.65;3.72;;;;;;;7.29;55.26;94460.72;10433327;27;98599;-63
2022/04/22 01:43:47;;;;;;;6.18;3.60;;;;;;;7.09;55.72;94468.09;10440357;27;97229;-63
2022/04/22 01:48:50;;;;;;;4.90;3.80;;;;;;;7.21;55.08;94467.56;10449477;27;97815;-63
2022/04/22 01:53:54;;;;;;;8.23;4.85;;;;;;;7.00;56.42;94464.72;10438756;27;97620;-64
2022/04/22 01:58:57;;;;;;;9.60;4.47;;;;;;;7.13;55.65;94465.00;10442138;27;97204;-63
2022/04/22 02:04:01;;;;;;;4.28;3.85;;;;;;;7.16;55.00;94464.66;10452664;27;96811;-63
2022/04/22 02:09:05;;;;;;;5.60;3.78;;;;;;;7.24;53.67;94460.41;10438672;27;97940;-63
2022/04/22 02:14:08;;;;;;;6.13;4.05;;;;;;;7.25;54.21;94462.00;10433725;27;96889;-63
2022/04/22 02:19:11;;;;;;;5.82;3.83;;;;;;;7.21;53.53;94471.94;10433484;27;97576;-63
2022/04/22 02:24:15;;;;;;;5.90;4.22;;;;;;;7.07;53.79;94470.06;10419952;27;97042;-63
2022/04/22 02:29:18;;;;;;;5.68;4.50;;;;;;;6.79;55.61;94462.69;10421819;27;97841;-64
2022/04/22 02:34:21;;;;;;;8.65;4.95;;;;;;;6.55;57.39;94461.78;10445841;27;96891;-63
2022/04/22 02:39:25;;;;;;;5.85;4.80;;;;;;;6.34;58.26;94449.34;10435763;27;96897;-63
2022/04/22 02:49:49;;;;;;;5.65;4.18;;;;;;;6.20;59.12;94460.41;10437179;27;97157;-63
2022/04/22 02:54:54;;;;;;;5.32;3.78;;;;;;;6.25;58.08;94455.53;10447641;27;100277;-63
2022/04/22 02:59:57;;;;;;;6.50;4.73;;;;;;;6.35;58.08;94450.97;10422076;27;98122;-64
2022/04/22 03:05:00;;;;;;;7.20;4.55;;;;;;;6.15;59.32;94453.09;10448933;27;97928;-63
2022/04/22 03:10:05;;;;;;;7.75;4.40;;;;;;;5.97;59.57;94450.72;10447220;27;97198;-63
2022/04/22 03:15:09;;;;;;;5.97;4.70;;;;;;;5.95;59.72;94450.06;10435884;27;97186;-63
2022/04/22 03:20:12;;;;;;;5.20;3.78;;;;;;;6.02;58.68;94456.22;10429308;27;96914;-64
2022/04/22 03:25:19;;;;;;;5.18;3.50;;;;;;;6.00;58.18;94447.81;10430708;27;96889;-63
2022/04/22 03:30:22;;;;;;;6.93;4.85;;;;;;;5.95;59.28;94439.69;10421471;27;97187;-63
2022/04/22 03:35:25;;;;;;;8.30;5.22;;;;;;;5.66;61.00;94446.19;10450013;27;96808;-63
2022/04/22 03:40:29;;;;;;;6.95;4.90;;;;;;;5.61;60.99;94440.66;10443267;27;100999;-63
2022/04/22 03:45:32;;;;;;;7.40;4.82;;;;;;;5.66;61.18;94433.22;10424951;27;97139;-63
2022/04/22 03:50:36;;;;;;;5.90;4.57;;;;;;;5.68;60.94;94433.88;10418572;27;97020;-63
2022/04/22 03:55:41;;;;;;;7.90;4.82;;;;;;;5.56;61.03;94432.56;10431113;27;97929;-63
2022/04/22 04:00:45;;;;;;;;;;;;;;;5.52;60.07;94439.06;10430760;27;96938;-63
2022/04/22 04:05:50;;;;;;;9.23;5.05;;;;;;;5.38;61.42;94437.09;10434037;27;97575;-63
2022/04/22 04:16:14;;;;;;;6.18;5.18;;;;;;;5.27;62.58;94441.63;10429687;27;96948;-63
2022/04/22 04:26:39;;;;;;;6.38;5.18;;;;;;;5.07;63.61;94442.88;10422143;27;96759;-63
2022/04/22 04:31:42;;;;;;;5.32;4.53;;;;;;;5.13;62.30;94434.44;10452130;27;97053;-63
2022/04/22 04:36:45;;;;;;;5.53;3.97;;;;;;;5.17;61.46;94440.94;10420627;27;96901;-63
2022/04/22 04:41:49;;;;;;;6.05;4.80;;;;;;;5.12;62.97;94430.25;10443485;27;96878;-63
2022/04/22 04:46:52;;;;;;;6.63;4.60;;;;;;;5.10;61.67;94439.97;10430873;27;97015;-63
2022/04/22 04:51:57;;;;;;;7.03;5.60;;;;;;;5.12;61.59;94438.81;10434230;27;98629;-63
2022/04/22 04:57:01;;;;;;;9.85;6.13;;;;;;;5.00;63.25;94447.06;10430044;27;99891;-63
2022/04/22 05:02:04;;;;;;;6.70;5.50;;;;;;;4.90;63.75;94442.81;10438319;27;98857;-63
2022/04/22 05:07:07;;;;;;;7.88;5.57;;;;;;;4.94;64.46;94441.53;10433868;27;96989;-63
2022/04/22 05:12:12;;;;;;;8.02;5.10;;;;;;;5.06;62.77;94443.81;10442829;27;96926;-63
2022/04/22 05:17:15;;;;;;;8.85;6.28;;;;;;;5.15;63.17;94448.06;10440054;27;96888;-63
2022/04/22 05:22:17;;;;;;;7.15;5.78;;;;;;;5.16;63.43;94441.91;10431904;27;97666;-63
2022/04/22 05:27:21;;;;;;;6.47;5.38;;;;;;;5.28;62.30;94448.41;10433238;27;99494;-64
2022/04/22 05:32:40;;;;;;;6.25;4.45;;;;;;;5.44;61.72;94446.81;10443613;27;98686;-63
2022/04/22 05:37:48;;;;;;;6.45;4.95;;;;;;;5.56;61.63;94458.47;10441232;27;99099;-63
2022/04/22 05:42:53;;;;;;;7.10;4.90;;;;;;;5.72;60.58;94455.91;10441970;27;97019;-63
2022/04/22 05:47:57;;;;;;;6.45;5.68;;;;;;;5.84;61.22;94461.59;10440530;27;98541;-63
2022/04/22 05:53:00;;;;;;;6.25;4.50;;;;;;;5.97;60.29;94458.50;10424497;27;97017;-63
2022/04/22 05:58:05;;;;;;;8.80;5.97;;;;;;;6.10;60.94;94463.16;10429711;27;99205;-64
2022/04/22 06:03:08;;;;;;;10.20;5.33;;;;;;;6.27;59.71;94469.16;10438882;27;97784;-63
2022/04/22 06:13:33;;;;;;;8.43;5.63;;;;;;;6.54;58.29;94469.72;10431129;27;97131;-63
2022/04/22 06:18:36;;;;;;;8.52;6.05;;;;;;;6.67;58.69;94470.03;10423426;27;97443;-63
2022/04/22 06:23:39;;;;;;;7.85;6.22;;;;;;;6.85;59.22;94462.03;10427142;27;96741;-63
2022/04/22 06:28:43;;;;;;;7.38;6.05;;;;;;;6.99;58.12;94463.13;10433753;27;96947;-63
2022/04/22 06:33:46;;;;;;;9.55;7.03;;;;;;;7.16;57.42;94469.88;10444822;27;96894;-64
2022/04/22 06:38:49;;;;;;;8.68;7.38;;;;;;;7.35;57.61;94466.03;10433027;27;99698;-63
2022/04/22 06:49:14;;;;;;;9.35;7.95;;;;;;;7.68;56.77;94467.59;10443702;27;100884;-63
2022/04/22 06:54:17;;;;;;;13.52;8.70;;;;;;;7.79;57.24;94472.41;10430214;27;98874;-63
2022/04/22 06:59:23;;;;;;;14.10;10.13;;;;;;;7.98;58.12;94466.72;10443002;27;96999;-63
2022/04/22 07:04:27;;;;;;;13.35;10.45;;;;;;;8.18;58.73;94468.03;10428871;27;97705;-63
2022/04/22 07:09:30;;;;;;;11.20;9.63;;;;;;;8.34;58.31;94467.84;10437655;27;96887;-63
2022/04/22 07:14:35;;;;;;;17.02;10.45;;;;;;;8.53;58.60;94471.72;10441128;27;97643;-63
2022/04/22 07:19:41;;;;;;;11.80;9.52;;;;;;;8.67;58.43;94463.16;10414086;28;96771;-63
2022/04/22 07:24:45;;;;;;;11.73;10.35;;;;;;;8.83;57.81;94467.34;10418433;27;96813;-63
2022/04/22 07:29:50;;;;;;;13.27;10.63;;;;;;;8.96;57.96;94471.13;10425117;27;96935;-63
2022/04/22 07:34:54;;;;;;;14.50;10.82;;;;;;;9.17;57.81;94467.75;10425636;27;97227;-63
2022/04/22 07:39:57;;;;;;;13.45;10.10;;;;;;;9.32;57.52;94471.16;10427075;27;96986;-63
2022/04/22 07:50:42;;;;;;;12.25;10.60;;;;;;;9.64;57.63;94474.31;10417243;27;96822;-63
2022/04/22 07:55:46;;;;;;;15.80;10.93;;;;;;;9.83;57.12;94484.13;10425240;27;96805;-63
2022/04/22 08:00:51;;;;;;;12.23;10.05;;;;;;;10.03;57.07;94478.31;10423047;27;98831;-64
2022/04/22 08:05:53;;;;;;;12.30;10.20;;;;;;;10.18;56.72;94486.03;10422347;27;97380;-63
2022/04/22 08:10:56;;;;;;;11.82;10.63;;;;;;;10.42;56.60;94471.78;10425440;27;96892;-63
2022/04/22 08:16:01;;;;;;;11.05;9.70;;;;;;;10.70;55.92;94473.56;10425071;27;96773;-63
2022/04/22 08:21:04;;;;;;;12.80;10.40;;;;;;;10.90;55.27;94469.25;10419842;27;96711;-63
2022/04/22 08:26:07;;;;;;;13.45;10.30;;;;;;;11.08;54.26;94473.97;10425411;27;96900;-63
2022/04/22 08:31:11;;;;;;;11.00;9.82;;;;;;;11.23;54.26;94465.19;10425104;27;97156;-63
2022/04/22 08:36:14;;;;;;;11.20;9.87;;;;;;;11.56;54.41;94465.34;10420117;27;97362;-64
2022/04/22 08:41:18;;;;;;;11.55;10.30;;;;;;;11.89;53.85;94467.22;10425986;27;96761;-64
2022/04/22 08:51:45;;;;;;;12.05;10.15;;;;;;;12.07;52.41;94451.72;10429010;27;96753;-63
2022/04/22 08:56:52;;;;;;;11.85;10.18;;;;;;;12.22;52.18;94456.75;10428915;27;97267;-63
2022/04/22 09:01:57;;;;;;;12.13;10.73;;;;;;;12.30;51.82;94447.88;10430570;27;96974;-64
2022/04/22 09:07:01;;;;;;;12.63;9.35;;;;;;;12.60;51.57;94443.03;10433282;27;99732;-63
2022/04/22 09:12:08;;;;;;;11.20;9.85;;;;;;;12.96;50.80;94439.16;10441872;27;96768;-63
2022/04/22 09:17:14;;;;;;;11.23;9.95;;;;;;;13.17;50.69;94430.19;10432122;27;97018;-63
2022/04/22 09:22:19;;;;;;;11.48;10.10;;;;;;;13.39;49.97;94440.38;10430045;27;96988;-64
2022/04/22 09:27:32;;;;;;;11.07;9.82;;;;;;;13.65;49.62;94423.69;10425932;27;96865;-64
2022/04/22 09:32:39;;;;;;;12.25;10.65;;;;;;;13.91;49.12;94417.47;10442307;27;96994;-63
2022/04/22 09:43:11;;;;;;;12.88;10.63;;;;;;;14.13;49.37;94422.38;10430084;27;97362;-63
2022/04/22 09:48:18;;;;;;;13.73;10.80;;;;;;;14.07;49.61;94426.66;10427145;27;97077;-64
2022/04/22 09:53:33;;;;;;;11.05;9.77;;;;;;;14.08;48.72;94427.47;10428162;27;96867;-64
2022/04/22 09:58:37;;;;;;;11.48;10.27;;;;;;;14.05;48.90;94417.38;10429863;27;98669;-63
2022/04/22 10:03:43;;;;;;;12.47;10.33;;;;;;;14.29;48.64;94413.94;10426598;27;97023;-63
2022/04/22 10:08:48;;;;;;;11.35;9.80;;;;;;;14.43;48.46;94413.84;10426372;27;96860;-63
2022/04/22 10:13:54;;;;;;;12.18;10.32;;;;;;;14.51;48.28;94413.59;10427724;27;96901;-63
2022/04/22 10:18:59;;;;;;;11.20;10.10;;;;;;;14.60;48.19;94414.09;10428121;27;97013;-64
2022/04/22 10:24:03;;;;;;;12.18;10.73;;;;;;;14.69;47.57;94403.06;10423461;27;96781;-64
2022/04/22 10:29:07;;;;;;;12.05;10.60;;;;;;;14.90;46.54;94403.66;10428796;27;96807;-63
2022/04/22 10:34:11;;;;;;;11.00;9.90;;;;;;;15.11;47.12;94399.78;10428291;27;97390;-64
2022/04/22 10:39:35;;;;;;;13.38;9.68;;;;;;;15.17;46.29;94398.13;10423873;27;96931;-64
2022/04/22 10:50:24;;;;;;;14.15;10.45;;;;;;;15.52;46.03;94400.09;10428337;27;96726;-63
2022/04/22 10:55:27;;;;;;;13.00;10.82;;;;;;;15.59;45.08;94391.09;10427394;27;97161;-64
2022/04/22 11:00:31;;;;;;;11.88;10.00;;;;;;;15.75;45.73;94394.13;10422779;27;96967;-64
2022/04/22 11:05:37;;;;;;;11.38;10.07;;;;;;;15.80;45.37;94386.34;10437637;27;96934;-64
2022/04/22 11:11:09;;;;;;;11.68;10.50;;;;;;;15.98;44.64;94390.72;10426811;27;97819;-64
2022/04/22 11:16:17;;;;;;;10.82;9.77;;;;;;;16.20;44.61;94391.78;10426901;27;96960;-64
2022/04/22 11:21:42;;;;;;;12.45;11.18;;;;;;;16.30;44.66;94388.59;10422750;27;97241;-64
2022/04/22 11:26:46;;;;;;;12.13;10.95;;;;;;;16.44;44.39;94391.81;10437687;27;97211;-64
2022/04/22 11:32:00;;;;;;;11.68;10.48;;;;;;;16.58;44.28;94387.91;10408450;27;96903;-63
2022/04/22 11:37:17;;;;;;;11.57;10.47;;;;;;;16.86;44.11;94389.03;10426719;27;96816;-64
2022/04/22 11:42:20;;;;;;;13.18;11.88;;;;;;;16.76;43.16;94379.09;10423802;27;97827;-63
2022/04/22 11:47:23;;;;;;;12.57;11.27;;;;;;;16.52;44.16;94367.75;10442811;27;97272;-63
2022/04/22 11:52:30;;;;;;;11.82;10.63;;;;;;;16.58;44.05;94366.81;10425415;27;98901;-64
2022/04/22 11:57:36;;;;;;;11.93;10.20;;;;;;;16.76;44.06;94365.91;10441842;27;96980;-63
2022/04/22 12:08:13;;;;;;;11.95;10.75;;;;;;;16.86;43.99;94361.88;10436369;27;97693;-63
2022/04/22 12:13:16;;;;;;;13.70;11.20;;;;;;;17.07;43.67;94355.16;10435369;27;96995;-64
2022/04/22 12:18:30;;;;;;;12.85;11.48;;;;;;;17.23;43.69;94351.81;10453847;27;98194;-64
2022/04/22 12:23:37;;;;;;;12.38;11.18;;;;;;;17.44;43.51;94357.44;10449079;27;96957;-64
2022/04/22 12:28:58;;;;;;;14.88;10.65;;;;;;;17.73;43.26;94350.28;10428036;27;96739;-64
2022/04/22 12:34:03;;;;;;;13.07;11.55;;;;;;;17.93;42.86;94348.00;10439862;27;97549;-64
2022/04/22 12:39:08;;;;;;;;;;;;;;;18.08;42.73;94344.81;10439956;27;96734;-64
2022/04/22 12:44:13;;;;;;;13.23;11.35;;;;;;;18.31;41.96;94346.47;10434203;27;97725;-64
2022/04/22 12:54:42;;;;;;;12.13;10.88;;;;;;;18.43;41.51;94338.44;10433595;27;97013;-64
2022/04/22 12:59:47;;;;;;;13.48;10.70;;;;;;;18.86;41.21;94342.22;10452340;27;96869;-64
2022/04/22 13:04:55;;;;;;;13.77;11.05;;;;;;;19.00;40.67;94333.91;10437525;27;97204;-64
2022/04/22 13:10:02;;;;;;;10.77;9.48;;;;;;;19.12;40.60;94337.22;10428689;27;97054;-64
2022/04/22 13:15:06;;;;;;;10.02;8.90;;;;;;;19.41;40.56;94326.41;10445048;27;96695;-64
2022/04/22 13:20:12;;;;;;;10.47;9.40;;;;;;;19.54;40.40;94331.31;10444187;27;97022;-64
2022/04/22 13:25:19;;;;;;;13.18;9.95;;;;;;;19.74;40.20;94329.88;10430508;27;97041;-64
2022/04/22 13:30:22;;;;;;;13.43;9.93;;;;;;;19.94;39.35;94330.09;10446864;27;96817;-64
2022/04/22 13:35:25;;;;;;;12.60;11.00;;;;;;;20.33;38.74;94329.84;10437656;27;98509;-64
2022/04/22 13:40:29;;;;;;;12.23;11.02;;;;;;;20.38;38.20;94324.56;10442180;27;97670;-64
2022/04/22 13:56:14;;;;;;;15.27;10.55;;;;;;;20.79;36.92;94323.22;10436782;27;96979;-64
2022/04/22 14:01:17;;;;;;;13.80;10.55;;;;;;;20.75;36.44;94329.06;10437440;27;97049;-64
2022/04/22 14:06:20;;;;;;;16.15;9.98;;;;;;;20.93;37.23;94327.81;10439682;27;96833;-64
2022/04/22 14:11:27;;;;;;;15.25;9.82;;;;;;;20.94;36.95;94331.25;10446112;27;96838;-64
2022/04/22 14:16:33;;;;;;;12.18;9.93;;;;;;;20.71;36.99;94338.53;10438876;27;98058;-64
2022/04/22 14:21:35;;;;;;;15.15;10.43;;;;;;;20.60;37.17;94328.13;10438038;27;98339;-64
2022/04/22 14:26:40;;;;;;;11.88;9.77;;;;;;;20.81;37.19;94321.09;10434279;27;96961;-64
2022/04/22 14:32:03;;;;;;;14.77;10.65;;;;;;;21.16;36.59;94328.41;10448603;27;97744;-64
2022/04/22 14:37:07;;;;;;;11.83;9.73;;;;;;;21.22;36.74;94316.72;10432544;27;104405;-64
2022/04/22 14:42:11;;;;;;;11.33;9.00;;;;;;;21.13;37.40;94326.28;10438409;27;96942;-64
2022/04/22 14:47:14;;;;;;;;;;;;;;;20.72;37.82;94329.53;10439946;27;97026;-64
2022/04/22 14:52:18;;;;;;;11.68;9.65;;;;;;;20.52;38.31;94329.41;10434246;27;97164;-64
2022/04/22 14:57:22;;;;;;;14.35;10.68;;;;;;;20.34;37.86;94333.31;10429971;27;98582;-64
2022/04/22 15:02:28;;;;;;;10.85;9.65;;;;;;;20.23;38.50;94327.09;10436598;27;98722;-64
2022/04/22 15:07:31;;;;;;;11.48;9.32;;;;;;;19.87;39.70;94326.03;10434902;27;96912;-64
2022/04/22 15:12:38;;;;;;;11.33;9.53;;;;;;;20.49;38.32;94330.72;10438871;27;98580;-64
2022/04/22 15:28:24;;;;;;;9.20;7.70;;;;;;;20.79;37.54;94328.50;10447784;27;96765;-64
2022/04/22 15:33:27;;;;;;;10.25;8.02;;;;;;;20.75;37.28;94323.75;10436178;27;101438;-64
2022/04/22 15:38:30;;;;;;;11.38;7.90;;;;;;;20.69;37.72;94322.09;10427769;27;101473;-64
2022/04/22 15:43:35;;;;;;;9.73;7.30;;;;;;;20.87;37.79;94328.03;10429985;27;96963;-64
2022/04/22 15:48:39;;;;;;;10.82;8.70;;;;;;;21.47;36.94;94326.63;10441373;27;96811;-64
2022/04/22 15:53:42;;;;;;;9.40;7.30;;;;;;;22.86;35.51;94313.28;10425787;27;97970;-64
2022/04/22 15:58:47;;;;;;;8.90;7.90;;;;;;;24.30;33.96;94320.44;10444094;27;97346;-64
2022/04/22 16:03:50;;;;;;;9.25;7.20;;;;;;;24.58;33.04;94310.03;10454380;27;98132;-64
2022/04/22 16:08:53;;;;;;;9.38;6.65;;;;;;;25.37;32.34;94304.28;10443504;27;96990;-64
2022/04/22 16:19:19;;;;;;;70.22;56.17;;;;;;;26.16;31.85;94306.34;10432019;27;101437;-64
2022/04/22 16:24:22;;;;;;;82.75;44.83;;;;;;;26.73;30.91;94311.53;10434447;27;97229;-64
2022/04/22 16:29:26;;;;;;;8.67;6.13;;;;;;;27.01;29.93;94309.69;10440132;27;97291;-64
2022/04/22 16:34:30;;;;;;;6.43;5.32;;;;;;;25.96;30.69;94318.97;10443457;27;101688;-64
2022/04/22 16:39:33;;;;;;;6.50;4.88;;;;;;;25.04;31.30;94306.84;10451324;27;98494;-64
2022/04/22 16:44:39;;;;;;;6.63;5.25;;;;;;;24.61;32.21;94320.09;10454699;27;98087;-64
2022/04/22 16:49:42;;;;;;;7.80;4.95;;;;;;;23.44;33.85;94326.09;10445964;27;96794;-64
2022/04/22 16:54:45;;;;;;;8.52;5.20;;;;;;;22.29;35.40;94327.75;10443458;27;97668;-64
2022/04/22 16:59:50;;;;;;;7.38;5.90;;;;;;;22.37;35.14;94329.84;10446873;27;97256;-64
2022/04/22 17:04:53;;;;;;;7.40;5.95;;;;;;;22.56;34.84;94317.63;10441570;27;97792;-64
2022/04/22 17:09:56;;;;;;;6.68;5.10;;;;;;;22.98;34.18;94324.41;10443214;27;96965;-64
2022/04/22 17:25:42;;;;;;;8.43;5.85;;;;;;;24.81;32.72;94335.94;10432509;27;96754;-64
2022/04/22 17:30:47;;;;;;;9.05;5.72;;;;;;;24.20;32.87;94342.66;10454267;27;96957;-64
2022/04/22 17:35:49;;;;;;;9.68;5.90;;;;;;;23.11;34.56;94348.88;10453166;27;96868;-64
2022/04/22 17:40:53;;;;;;;7.38;5.80;;;;;;;21.86;36.16;94349.28;10447692;27;97077;-64
2022/04/22 17:45:57;;;;;;;8.65;5.90;;;;;;;20.87;37.07;94341.31;10442363;27;97461;-64
2022/04/22 17:51:01;;;;;;;8.05;5.57;;;;;;;20.01;38.40;94356.38;10461102;27;97305;-65
2022/04/22 17:56:05;;;;;;;;;;;;;;;19.16;39.52;94361.34;10447350;27;97716;-64
2022/04/22 18:01:10;;;;;;;9.80;5.32;;;;;;;18.48;41.29;94359.69;10432800;27;97244;-64
2022/04/22 18:06:13;;;;;;;7.65;5.88;;;;;;;18.24;42.15;94372.28;10424270;27;98812;-64
2022/04/22 18:11:17;;;;;;;10.23;6.20;;;;;;;17.81;42.68;94373.66;10421710;27;97085;-63
2022/04/22 18:16:24;;;;;;;9.60;5.72;;;;;;;17.38;43.40;94375.81;10428982;27;98712;-63
2022/04/22 18:21:27;;;;;;;;;;;;;;;16.96;42.99;94376.06;10453988;27;97851;-63
2022/04/22 18:26:31;;;;;;;10.05;7.28;;;;;;;16.72;43.16;94382.38;10452524;27;97878;-62
2022/04/22 18:31:37;;;;;;;8.38;6.15;;;;;;;16.36;44.37;94394.78;10445776;27;97017;-63
2022/04/22 18:36:40;;;;;;;9.30;6.88;;;;;;;16.21;44.53;94398.66;10452265;27;97078;-63
2022/04/22 18:41:44;;;;;;;9.60;7.20;;;;;;;15.93;45.42;94401.13;10425814;27;96743;-63
2022/04/22 18:46:48;;;;;;;11.53;7.00;;;;;;;15.62;45.36;94406.44;10426101;27;96819;-63
2022/04/22 18:51:52;;;;;;;10.40;6.60;;;;;;;15.29;46.68;94412.13;10424096;27;97539;-62
2022/04/22 18:56:57;;;;;;;7.82;6.60;;;;;;;15.07;47.68;94409.94;10426191;27;96916;-63
2022/04/22 19:02:01;;;;;;;;;;;;;;;14.99;46.81;94412.88;10428242;27;96924;-63
2022/04/22 19:07:08;;;;;;;10.80;6.03;;;;;;;15.01;47.24;94410.84;10427981;27;96931;-62
2022/04/22 19:12:11;;;;;;;10.20;7.18;;;;;;;15.05;48.84;94422.50;10422141;27;96917;-63
2022/04/22 19:17:16;;;;;;;10.18;7.07;;;;;;;14.97;49.62;94422.78;10426955;27;96925;-63
2022/04/22 19:22:25;;;;;;;14.73;9.68;;;;;;;14.83;49.85;94435.28;10427457;27;96747;-63
2022/04/22 19:27:28;;;;;;;10.00;7.13;;;;;;;14.74;50.51;94432.13;10444346;27;98918;-63
2022/04/22 19:32:32;;;;;;;12.90;7.57;;;;;;;14.55;51.18;94433.13;10449980;27;97812;-63
2022/04/22 19:42:57;;;;;;;12.63;7.78;;;;;;;14.41;49.44;94431.66;10436712;27;97031;-62
2022/04/22 19:48:01;;;;;;;;;;;;;;;14.43;49.50;94442.75;10440450;27;96802;-62
2022/04/22 19:53:05;;;;;;;9.38;7.03;;;;;;;14.41;48.63;94437.72;10437099;27;97129;-62
2022/04/22 19:58:09;;;;;;;7.10;6.13;;;;;;;14.46;49.48;94450.22;10440471;27;98100;-63
2022/04/22 20:03:13;;;;;;;10.13;6.65;;;;;;;14.53;50.01;94456.22;10432547;27;98547;-62
2022/04/22 20:08:16;;;;;;;10.70;6.88;;;;;;;14.54;49.76;94457.78;10441678;27;97534;-63
2022/04/22 20:13:19;;;;;;;9.93;7.53;;;;;;;14.51;50.13;94458.25;10438511;27;97203;-63
2022/04/22 20:18:24;;;;;;;9.93;6.93;;;;;;;14.53;50.36;94456.22;10439152;27;98463;-63
2022/04/22 20:23:27;;;;;;;10.32;7.75;;;;;;;14.45;50.92;94445.97;10428849;27;99320;-63
2022/04/22 20:28:30;;;;;;;11.68;7.57;;;;;;;14.26;51.91;94439.81;10431789;27;98008;-62
2022/04/22 20:33:35;;;;;;;10.00;7.28;;;;;;;14.19;52.33;94447.75;10429387;27;97755;-63
2022/04/22 20:43:59;;;;;;;10.80;8.05;;;;;;;14.01;51.95;94459.00;10432313;27;96806;-62
2022/04/22 20:49:04;;;;;;;9.95;8.43;;;;;;;13.89;53.34;94456.25;10437507;27;97358;-63
2022/04/22 20:54:07;;;;;;;12.82;7.88;;;;;;;13.88;52.04;94465.16;10435704;27;97447;-63
2022/04/22 20:59:14;;;;;;;9.88;7.07;;;;;;;13.89;51.92;94461.50;10437474;27;98463;-62
2022/04/22 21:04:18;;;;;;;9.70;6.75;;;;;;;13.92;52.33;94470.78;10443245;27;96938;-63
2022/04/22 21:09:21;;;;;;;11.77;6.77;;;;;;;13.86;51.88;94474.25;10432211;27;98541;-63
2022/04/22 21:14:24;;;;;;;11.20;7.72;;;;;;;13.54;53.50;94475.03;10432531;27;99765;-62
2022/04/22 21:19:28;;;;;;;12.70;8.00;;;;;;;13.20;54.79;94478.78;10441231;27;97753;-63
2022/04/22 21:24:31;;;;;;;13.37;9.13;;;;;;;12.90;55.34;94483.69;10435479;27;98288;-63
2022/04/22 21:29:34;;;;;;;11.57;9.60;;;;;;;12.57;56.95;94481.94;10437396;27;97618;-62
2022/04/22 21:34:38;;;;;;;13.07;9.82;;;;;;;12.33;58.10;94476.28;10440699;27;96959;-62
2022/04/22 21:39:44;;;;;;;9.73;8.18;;;;;;;12.31;57.90;94480.94;10447699;27;96875;-62
2022/04/22 21:44:47;;;;;;;11.68;8.95;;;;;;;12.57;57.24;94479.31;10455168;27;96933;-62
2022/04/22 21:49:51;;;;;;;11.52;9.98;;;;;;;12.37;58.48;94484.53;10443903;27;97185;-62
2022/04/22 21:54:54;;;;;;;10.70;8.30;;;;;;;12.09;59.17;94485.53;10439516;27;102135;-62
2022/04/22 21:59:57;;;;;;;10.40;9.30;;;;;;;11.95;59.80;94492.56;10443621;27;96931;-62
2022/04/22 22:05:01;;;;;;;8.85;7.45;;;;;;;11.80;60.32;94486.69;10446207;27;98657;-63
2022/04/22 22:10:05;;;;;;;7.35;5.53;;;;;;;11.76;59.74;94488.91;10443643;27;98645;-62
2022/04/22 22:15:12;;;;;;;7.85;6.93;;;;;;;12.09;58.86;94499.44;10435846;27;98030;-63
2022/04/22 22:20:17;;;;;;;9.80;7.70;;;;;;;12.13;59.37;94489.38;10449392;27;97706;-62
2022/04/22 22:25:19;;;;;;;8.88;7.88;;;;;;;11.80;60.31;94478.84;10434927;27;96828;-62
2022/04/22 22:30:22;;;;;;;9.00;6.97;;;;;;;11.87;59.88;94479.69;10439970;27;97234;-62
2022/04/22 22:35:27;;;;;;;8.32;6.47;;;;;;;11.95;59.88;94476.06;10435670;27;96967;-62
2022/04/22 22:40:30;;;;;;;9.50;7.78;;;;;;;11.66;60.37;94481.47;10436013;27;97550;-62
2022/04/22 22:45:33;;;;;;;10.40;7.05;;;;;;;11.59;61.18;94478.03;10450819;27;97359;-63
2022/04/22 22:50:38;;;;;;;6.18;4.63;;;;;;;11.39;62.12;94475.31;10454748;27;98477;-62
2022/04/22 22:55:41;;;;;;;7.20;5.20;;;;;;;11.64;60.72;94470.38;10453976;27;97395;-63
2022/04/22 23:00:44;;;;;;;7.80;6.28;;;;;;;11.94;59.47;94464.81;10454975;27;96908;-62
2022/04/22 23:05:48;;;;;;;6.85;5.78;;;;;;;11.92;59.61;94461.59;10445157;27;98012;-62
2022/04/22 23:10:51;;;;;;;5.03;4.40;;;;;;;12.00;58.84;94453.53;10446612;27;100143;-62
2022/04/22 23:15:54;;;;;;;7.82;6.07;;;;;;;12.18;59.01;94452.94;10434746;27;96959;-62
2022/04/22 23:20:59;;;;;;;7.70;5.78;;;;;;;12.31;58.79;94450.31;10449632;27;96912;-63
2022/04/22 23:26:02;;;;;;;10.00;7.55;;;;;;;12.19;59.62;94438.03;10431010;27;97572;-62
2022/04/22 23:31:05;;;;;;;47.70;36.10;;;;;;;12.00;60.48;94443.06;10439356;27;97027;-63
2022/04/22 23:36:10;;;;;;;12.50;11.02;;;;;;;12.19;59.74;94445.88;10443809;27;98525;-63
2022/04/22 23:41:13;;;;;;;13.07;9.27;;;;;;;11.92;61.18;94456.34;10446924;27;97255;-62
2022/04/22 23:46:16;;;;;;;7.03;5.75;;;;;;;11.39;62.51;94435.31;10438984;27;96988;-62
2022/04/22 23:51:21;;;;;;;7.25;5.88;;;;;;;11.06;64.34;94430.75;10455071;27;97144;-62
2022/04/22 23:56:24;;;;;;;7.65;6.25;;;;;;;10.92;64.01;94435.13;10429736;27;96812;-62
